createdAt,value
2022-09-10T00:00:52.065Z,5
2022-09-10T00:10:53.370Z,6
2022-09-10T00:20:54.764Z,5
2022-09-10T00:30:56.280Z,3
2022-09-10T00:40:57.894Z,5
2022-09-10T00:50:59.175Z,6
2022-09-10T01:01:00.218Z,5
2022-09-10T01:11:01.264Z,4
2022-09-10T01:21:02.592Z,4
2022-09-10T01:31:03.909Z,6
2022-09-10T01:41:04.871Z,4
2022-09-10T01:51:05.911Z,3
2022-09-10T02:01:07.017Z,4
2022-09-10T02:11:08.358Z,6
2022-09-10T02:21:09.632Z,4
2022-09-10T02:31:11.174Z,6
2022-09-10T02:41:12.482Z,4
2022-09-10T02:51:13.690Z,4
2022-09-10T03:01:15.017Z,5
2022-09-10T03:11:17.363Z,7
2022-09-10T03:21:19.163Z,5
2022-09-10T03:31:20.508Z,3
2022-09-10T03:41:21.551Z,6
2022-09-10T03:51:22.509Z,5
2022-09-10T04:01:23.908Z,7
2022-09-10T04:11:25.208Z,7
2022-09-10T04:21:26.484Z,6
2022-09-10T04:31:27.778Z,6
2022-09-10T04:41:28.775Z,6
2022-09-10T04:51:30.047Z,8
2022-09-10T05:01:31.914Z,6
2022-09-10T05:11:33.721Z,6
2022-09-10T05:21:34.673Z,5
2022-09-10T05:31:35.946Z,6
2022-09-10T05:41:37.606Z,4
2022-09-10T05:51:38.625Z,7
2022-09-10T06:01:39.885Z,6
2022-09-10T06:11:40.951Z,6
2022-09-10T06:21:42.304Z,5
2022-09-10T06:31:44.185Z,6
2022-09-10T06:41:49.443Z,6
2022-09-10T06:51:50.845Z,6
2022-09-10T07:01:52.248Z,5
2022-09-10T07:11:53.654Z,6
2022-09-10T07:21:54.960Z,5
2022-09-10T07:31:55.934Z,4
2022-09-10T07:41:57.318Z,5
2022-09-10T07:52:00.112Z,5
2022-09-10T08:02:01.592Z,5
2022-09-10T08:12:02.917Z,4
2022-09-10T08:22:03.968Z,4
2022-09-10T08:29:12.114Z,4
2022-09-10T08:37:56.495Z,4
2022-09-10T08:48:31.538Z,6
2022-09-10T08:54:24.059Z,3
2022-09-10T08:59:15.914Z,0
2022-09-10T09:04:02.633Z,2
2022-09-10T09:13:21.487Z,1
2022-09-10T09:18:56.652Z,2
2022-09-10T09:20:52.999Z,0
2022-09-10T09:23:09.488Z,3
2022-09-10T09:25:50.989Z,1
2022-09-10T09:35:52.515Z,1
2022-09-10T09:55:17.951Z,2
2022-09-10T10:05:19.019Z,0
2022-09-10T10:15:20.174Z,5
2022-09-10T10:25:21.169Z,2
2022-09-10T10:35:22.154Z,2
2022-09-10T10:45:23.106Z,1
2022-09-10T10:55:24.400Z,2
2022-09-10T11:05:25.681Z,1
2022-09-10T11:15:27.032Z,2
2022-09-10T11:25:28.311Z,2
2022-09-10T11:35:30.154Z,2
2022-09-10T11:45:31.138Z,2
2022-09-10T11:55:32.930Z,3
2022-09-10T12:05:34.249Z,1
2022-09-10T12:15:35.300Z,2
2022-09-10T12:25:36.599Z,2
2022-09-10T12:35:38.270Z,1
2022-09-10T12:45:39.414Z,2
2022-09-10T13:09:45.388Z,0
